Time;durP1;ratioP1;P1;durP2;ratioP2;P2;SDS_P1;SDS_P2;PMS_P1;PMS_P2;Temp;Humidity;BMP_temperature;BMP_pressure;BME280_temperature;BME280_humidity;BME280_pressure;Samples;Min_cycle;Max_cycle;Signal;HPM_P1;HPM_P2
2022/09/10 00:00:35;;;;;;;;;;;;;;;17.37;72.02;100727.22;4940465;28;122158;-78
2022/09/10 00:03:22;;;;;;;;;;;;;;;17.34;72.11;100734.53;4897649;28;121564;-78
2022/09/10 00:05:48;;;;;;;;;;;;;;;17.32;72.23;100727.94;4922941;28;120247;-78
2022/09/10 00:08:15;;;;;;;;;;;;;;;17.33;72.36;100732.25;4910338;28;121683;-78
2022/09/10 00:10:44;;;;;;;;;;;;;;;17.34;72.63;100722.66;4922808;28;120480;-79
2022/09/10 00:13:31;;;;;;;;;;;;;;;17.34;72.64;100728.22;4912811;28;120189;-79
2022/09/10 00:15:58;;;;;;;;;;;;;;;17.32;72.30;100720.41;4923856;28;120837;-78
2022/09/10 00:18:25;;;;;;;;;;;;;;;17.30;72.09;100722.16;4928564;28;122096;-78
2022/09/10 00:20:52;;;;;;;;;;;;;;;17.29;72.02;100718.63;4909599;28;121524;-78
2022/09/10 00:23:19;;;;;;;;;;;;;;;17.26;72.09;100724.38;4909976;28;123599;-78
2022/09/10 00:25:45;;;;;;;;;;;;;;;17.24;72.26;100729.66;4926592;28;120429;-79
2022/09/10 00:28:10;;;;;;;;;;;;;;;17.25;72.60;100728.41;4926337;28;121605;-79
2022/09/10 00:30:39;;;;;;;;;;;;;;;17.28;73.04;100725.41;4926375;28;120667;-78
2022/09/10 00:33:05;;;;;;;;;;;;;;;17.32;73.10;100722.41;4928547;28;120552;-79
2022/09/10 00:35:31;;;;;;;;;;;;;;;17.32;72.97;100719.63;4946252;28;120190;-78
2022/09/10 00:37:57;;;;;;;;;;;;;;;17.31;72.95;100718.13;4945452;28;121329;-78
2022/09/10 00:40:22;;;;;;;;;;;;;;;17.29;72.52;100715.09;4949533;28;120434;-79
2022/09/10 00:42:48;;;;;;;;;;;;;;;17.29;72.81;100718.63;4929675;28;123165;-78
2022/09/10 00:45:32;;;;;;;;;;;;;;;17.32;73.00;100706.53;4929342;28;122169;-78
2022/09/10 00:48:04;;;;;;;;;;;;;;;17.35;73.07;100708.31;4929335;28;121542;-78
2022/09/10 00:50:33;;;;;;;;;;;;;;;17.38;73.22;100704.53;4928509;28;124066;-78
2022/09/10 00:53:03;;;;;;;;;;;;;;;17.40;73.40;100702.03;4942809;28;120589;-78
2022/09/10 00:55:30;;;;;;;;;;;;;;;17.43;73.59;100703.03;4941762;28;122089;-78
2022/09/10 00:57:59;;;;;;;;;;;;;;;17.45;73.78;100704.06;4928014;28;121755;-78
2022/09/10 01:00:24;;;;;;;;;;;;;;;17.47;73.87;100703.56;4911590;28;121164;-78
2022/09/10 01:02:51;;;;;;;;;;;;;;;17.49;73.90;100707.34;4949222;28;121464;-79
2022/09/10 01:05:18;;;;;;;;;;;;;;;17.52;74.00;100705.63;4944692;28;120106;-78
2022/09/10 01:07:43;;;;;;;;;;;;;;;17.54;73.76;100694.78;4943010;28;120400;-78
2022/09/10 01:10:16;;;;;;;;;;;;;;;17.54;73.63;100696.81;4943139;28;120346;-78
2022/09/10 01:12:42;;;;;;;;;;;;;;;17.54;73.42;100696.81;4962704;28;120629;-78
2022/09/10 01:15:26;;;;;;;;;;;;;;;17.53;73.33;100684.19;4926304;28;120458;-78
2022/09/10 01:18:02;;;;;;;;;;;;;;;17.49;73.16;100696.25;4926452;28;121591;-78
2022/09/10 01:20:39;;;;;;;;;;;;;;;17.44;73.00;100699.78;4913022;28;120042;-79
2022/09/10 01:23:24;;;;;;;;;;;;;;;17.39;73.12;100696.97;4930008;28;122346;-79
2022/09/10 01:25:53;;;;;;;;;;;;;;;17.37;73.76;100710.59;4931081;28;120284;-78
2022/09/10 01:28:24;;;;;;;;;;;;;;;17.40;73.92;100704.03;4946323;28;120631;-78
2022/09/10 01:30:54;;;;;;;;;;;;;;;17.42;73.90;100713.38;4944984;28;124517;-78
2022/09/10 01:33:24;;;;;;;;;;;;;;;17.44;73.80;100707.31;4929080;28;120044;-78
2022/09/10 01:36:01;;;;;;;;;;;;;;;17.44;73.82;100710.88;4944831;28;121906;-79
2022/09/10 01:38:30;;;;;;;;;;;;;;;17.46;73.78;100718.69;4928606;28;123257;-78
2022/09/10 01:40:56;;;;;;;;;;;;;;;17.48;73.89;100710.63;4961955;28;121618;-78
2022/09/10 01:43:24;;;;;;;;;;;;;;;17.50;73.81;100716.44;4961557;28;120167;-78
2022/09/10 01:45:53;;;;;;;;;;;;;;;17.53;73.79;100709.91;4911687;28;122600;-78
2022/09/10 01:48:31;;;;;;;;;;;;;;;17.54;73.75;100708.66;4915555;28;119734;-78
2022/09/10 01:51:03;;;;;;;;;;;;;;;17.55;73.57;100704.63;4928907;28;124327;-78
2022/09/10 01:53:38;;;;;;;;;;;;;;;17.54;73.48;100708.66;4930040;28;120130;-79
2022/09/10 01:56:18;;;;;;;;;;;;;;;17.53;73.13;100698.81;4928195;28;122570;-78
2022/09/10 01:58:44;;;;;;;;;;;;;;;17.50;73.05;100706.09;4923591;28;122997;-78
2022/09/10 02:01:22;;;;;;;;;;;;;;;17.46;72.99;100713.91;4912954;28;120279;-78
2022/09/10 02:03:50;;;;;;;;;;;;;;;17.44;73.12;100710.88;4944363;28;122520;-78
2022/09/10 02:06:19;;;;;;;;;;;;;;;17.46;73.34;100702.03;4924720;28;120814;-78
2022/09/10 02:08:48;;;;;;;;;;;;;;;17.48;73.42;100719.69;4932064;28;119652;-79
2022/09/10 02:11:13;;;;;;;;;;;;;;;17.53;73.82;100709.16;4910464;28;123252;-78
2022/09/10 02:13:43;;;;;;;;;;;;;;;17.57;73.68;100696.56;4927860;28;120555;-78
2022/09/10 02:16:52;;;;;;;;;;;;;;;17.63;73.67;100710.44;4903257;28;120145;-78
2022/09/10 02:19:18;;;;;;;;;;;;;;;17.63;73.39;100705.66;4887110;28;122884;-78
2022/09/10 02:21:48;;;;;;;;;;;;;;;17.60;73.23;100714.22;4892936;28;120439;-77
2022/09/10 02:24:14;;;;;;;;;;;;;;;17.58;73.47;100717.50;4912643;28;121588;-78
2022/09/10 02:26:41;;;;;;;;;;;;;;;17.58;73.56;100720.25;4927498;28;120755;-78
2022/09/10 02:29:08;;;;;;;;;;;;;;;17.60;73.43;100717.00;4945013;28;120336;-78
2022/09/10 02:31:34;;;;;;;;;;;;;;;17.61;73.29;100718.50;4915762;28;121465;-78
2022/09/10 02:34:02;;;;;;;;;;;;;;;17.61;73.60;100712.97;4928255;28;119775;-78
2022/09/10 02:36:28;;;;;;;;;;;;;;;17.62;73.83;100722.78;4944365;28;120668;-78
2022/09/10 02:38:57;;;;;;;;;;;;;;;17.66;73.73;100723.31;4907844;28;123912;-77
2022/09/10 02:41:25;;;;;;;;;;;;;;;17.72;73.95;100729.66;4911411;28;120540;-77
2022/09/10 02:43:52;;;;;;;;;;;;;;;17.77;73.95;100723.41;4912223;28;122636;-77
2022/09/10 02:46:18;;;;;;;;;;;;;;;17.79;74.00;100718.88;4926866;28;120165;-76
2022/09/10 02:48:43;;;;;;;;;;;;;;;17.82;73.87;100713.56;4922341;28;121466;-76
2022/09/10 02:51:11;;;;;;;;;;;;;;;17.84;73.86;100719.38;4943899;28;119879;-76
2022/09/10 02:53:37;;;;;;;;;;;;;;;17.87;74.00;100718.38;4929468;28;121506;-76
2022/09/10 02:56:04;;;;;;;;;;;;;;;17.89;74.00;100724.19;4942057;28;121666;-77
2022/09/10 02:58:30;;;;;;;;;;;;;;;17.91;73.87;100719.63;4925852;28;120520;-77
2022/09/10 03:01:07;;;;;;;;;;;;;;;17.93;73.81;100727.47;4939766;28;120288;-78
2022/09/10 03:03:34;;;;;;;;;;;;;;;17.94;73.84;100726.97;4923816;28;120508;-77
2022/09/10 03:05:59;;;;;;;;;;;;;;;17.96;73.87;100726.47;4938126;28;121514;-77
2022/09/10 03:08:25;;;;;;;;;;;;;;;17.96;73.64;100732.78;4939192;28;121326;-77
2022/09/10 03:10:51;;;;;;;;;;;;;;;17.98;73.64;100729.50;4908129;28;121447;-77
2022/09/10 03:13:17;;;;;;;;;;;;;;;17.99;73.51;100725.50;4908479;28;120573;-77
2022/09/10 03:15:42;;;;;;;;;;;;;;;17.98;73.33;100724.72;4911327;28;120347;-77
2022/09/10 03:18:08;;;;;;;;;;;;;;;17.92;73.11;100725.94;4937297;28;122050;-77
2022/09/10 03:20:35;;;;;;;;;;;;;;;17.85;72.99;100720.88;4923019;28;120525;-77
2022/09/10 03:23:02;;;;;;;;;;;;;;;17.81;73.34;100720.38;4938357;28;121095;-77
2022/09/10 03:25:28;;;;;;;;;;;;;;;17.74;73.52;100716.84;4923201;28;120371;-77
2022/09/10 03:27:56;;;;;;;;;;;;;;;17.73;73.75;100715.28;4939991;28;122238;-78
2022/09/10 03:30:22;;;;;;;;;;;;;;;17.74;74.04;100725.16;4939203;28;119943;-77
2022/09/10 03:32:48;;;;;;;;;;;;;;;17.78;74.00;100716.59;4906457;28;123609;-77
2022/09/10 03:35:15;;;;;;;;;;;;;;;17.79;74.23;100718.88;4923351;28;120215;-77
2022/09/10 03:37:41;;;;;;;;;;;;;;;17.82;74.41;100719.13;4925700;28;121644;-78
2022/09/10 03:40:07;;;;;;;;;;;;;;;17.85;74.32;100724.41;4922832;28;121451;-76
2022/09/10 03:42:35;;;;;;;;;;;;;;;17.90;74.37;100720.16;4925060;28;121489;-77
2022/09/10 03:45:03;;;;;;;;;;;;;;;17.95;74.33;100728.47;4906533;28;123447;-77
2022/09/10 03:47:30;;;;;;;;;;;;;;;18.01;74.37;100731.28;4939551;28;120651;-76
2022/09/10 03:49:58;;;;;;;;;;;;;;;18.03;73.84;100731.53;4925377;28;120323;-76
2022/09/10 03:52:25;;;;;;;;;;;;;;;18.05;74.04;100729.78;4907983;28;121501;-76
2022/09/10 03:54:51;;;;;;;;;;;;;;;18.06;73.71;100731.31;4907214;28;121076;-77
2022/09/10 03:57:16;;;;;;;;;;;;;;;18.09;73.86;100729.53;4928726;28;121717;-76
2022/09/10 03:59:42;;;;;;;;;;;;;;;18.13;73.98;100723.72;4924664;28;121520;-77
2022/09/10 04:02:09;;;;;;;;;;;;;;;18.12;73.83;100728.53;4925501;28;120068;-76
2022/09/10 04:04:36;;;;;;;;;;;;;;;18.15;73.92;100718.44;4939912;28;123032;-76
2022/09/10 04:07:02;;;;;;;;;;;;;;;18.18;74.08;100723.75;4909377;28;120256;-77
2022/09/10 04:09:31;;;;;;;;;;;;;;;18.19;73.76;100722.47;4930065;28;120548;-77
2022/09/10 04:11:58;;;;;;;;;;;;;;;18.20;74.06;100728.78;4928742;28;122887;-76
2022/09/10 04:14:25;;;;;;;;;;;;;;;18.21;73.99;100725.50;4944707;28;120186;-76
2022/09/10 04:16:51;;;;;;;;;;;;;;;18.24;74.36;100730.09;4910445;28;120416;-76
2022/09/10 04:19:22;;;;;;;;;;;;;;;18.30;74.36;100739.16;4931530;28;123097;-77
2022/09/10 04:21:50;;;;;;;;;;;;;;;18.34;74.34;100736.91;4928516;28;120229;-77
2022/09/10 04:24:36;;;;;;;;;;;;;;;18.33;74.44;100738.16;4926907;28;120615;-77
2022/09/10 04:27:02;;;;;;;;;;;;;;;18.33;74.24;100742.97;4928842;28;120356;-77
2022/09/10 04:29:31;;;;;;;;;;;;;;;18.34;74.19;100738.91;4942158;28;121862;-77
2022/09/10 04:31:57;;;;;;;;;;;;;;;18.36;74.31;100737.16;4911517;28;122928;-76
2022/09/10 04:34:24;;;;;;;;;;;;;;;18.39;74.28;100738.91;4929259;28;120247;-76
2022/09/10 04:36:56;;;;;;;;;;;;;;;18.42;74.38;100745.47;4941766;28;121509;-76
2022/09/10 04:39:22;;;;;;;;;;;;;;;18.45;74.17;100746.50;4926680;28;120696;-76
2022/09/10 04:41:48;;;;;;;;;;;;;;;18.49;74.20;100756.13;4915758;28;120656;-76
2022/09/10 04:44:18;;;;;;;;;;;;;;;18.54;73.88;100760.16;4927154;28;120549;-76
2022/09/10 04:47:22;;;;;;;;;;;;;;;18.57;74.12;100761.91;4883195;28;120551;-76
2022/09/10 04:49:48;;;;;;;;;;;;;;;18.60;73.91;100766.47;4884296;28;120239;-76
2022/09/10 04:52:16;;;;;;;;;;;;;;;18.62;74.06;100761.94;4884370;28;120532;-76
2022/09/10 04:54:42;;;;;;;;;;;;;;;18.64;74.07;100764.97;4884134;28;120623;-77
2022/09/10 04:57:08;;;;;;;;;;;;;;;18.66;74.27;100767.25;4870390;28;124695;-77
2022/09/10 04:59:34;;;;;;;;;;;;;;;18.68;73.87;100770.28;4868430;28;123968;-76
2022/09/10 05:02:00;;;;;;;;;;;;;;;18.71;74.09;100769.28;4884577;28;121107;-76
2022/09/10 05:04:26;;;;;;;;;;;;;;;18.75;74.01;100772.56;4888321;28;120546;-76
2022/09/10 05:06:52;;;;;;;;;;;;;;;18.77;73.79;100763.72;4884486;28;121068;-76
2022/09/10 05:09:19;;;;;;;;;;;;;;;18.79;74.09;100769.53;4866471;28;121934;-76
2022/09/10 05:11:48;;;;;;;;;;;;;;;18.80;73.81;100771.06;4884790;28;120733;-76
2022/09/10 05:14:41;;;;;;;;;;;;;;;18.81;74.12;100767.00;4861532;28;120050;-76
2022/09/10 05:17:07;;;;;;;;;;;;;;;18.81;73.91;100767.78;4870116;28;122091;-77
2022/09/10 05:19:32;;;;;;;;;;;;;;;18.83;73.85;100767.25;4943220;28;120124;-77
2022/09/10 05:22:02;;;;;;;;;;;;;;;18.83;73.70;100762.47;4912585;28;120023;-77
2022/09/10 05:24:33;;;;;;;;;;;;;;;18.84;73.70;100763.97;4944220;28;120776;-77
2022/09/10 05:27:00;;;;;;;;;;;;;;;18.86;73.93;100769.78;4931713;28;122469;-77
2022/09/10 05:29:26;;;;;;;;;;;;;;;18.86;74.07;100758.66;4945407;28;120253;-76
2022/09/10 05:31:51;;;;;;;;;;;;;;;18.87;73.93;100768.53;4927305;28;123335;-77
2022/09/10 05:34:17;;;;;;;;;;;;;;;18.88;73.70;100770.03;4944562;28;120230;-77
2022/09/10 05:36:42;;;;;;;;;;;;;;;18.89;73.55;100774.31;4927759;28;120730;-77
2022/09/10 05:39:09;;;;;;;;;;;;;;;18.89;73.61;100777.09;4943390;28;120512;-77
2022/09/10 05:41:36;;;;;;;;;;;;;;;18.88;73.45;100775.59;4944743;28;120075;-77
2022/09/10 05:44:02;;;;;;;;;;;;;;;18.89;73.52;100779.88;4912302;28;120608;-76
2022/09/10 05:46:28;;;;;;;;;;;;;;;18.90;73.57;100777.88;4943286;28;120079;-77
2022/09/10 05:48:56;;;;;;;;;;;;;;;18.92;73.77;100775.34;4945901;28;120042;-77
2022/09/10 05:51:26;;;;;;;;;;;;;;;18.92;73.78;100778.88;4911069;28;123994;-77
2022/09/10 05:53:52;;;;;;;;;;;;;;;18.94;73.82;100779.16;4927559;28;120280;-77
2022/09/10 05:56:19;;;;;;;;;;;;;;;18.96;73.75;100787.75;4944472;28;120702;-76
2022/09/10 05:58:45;;;;;;;;;;;;;;;18.99;73.93;100786.72;4910397;28;123065;-76
2022/09/10 06:01:12;;;;;;;;;;;;;;;19.03;74.02;100789.25;4928102;28;120526;-76
2022/09/10 06:03:39;;;;;;;;;;;;;;;19.07;73.97;100786.19;4927827;28;120227;-77
2022/09/10 06:06:08;;;;;;;;;;;;;;;19.11;73.75;100787.44;4943063;28;121405;-76
2022/09/10 06:08:35;;;;;;;;;;;;;;;19.16;74.09;100789.47;4931856;28;120391;-76
2022/09/10 06:11:09;;;;;;;;;;;;;;;19.18;73.81;100792.53;4911654;28;123197;-76
2022/09/10 06:13:42;;;;;;;;;;;;;;;19.21;73.79;100796.31;4926834;28;120157;-77
2022/09/10 06:16:09;;;;;;;;;;;;;;;19.23;73.63;100791.75;4911262;28;122118;-77
2022/09/10 06:18:38;;;;;;;;;;;;;;;19.24;73.79;100790.47;4942797;28;121408;-76
2022/09/10 06:21:14;;;;;;;;;;;;;;;19.26;73.63;100781.63;4927399;28;120458;-77
2022/09/10 06:23:42;;;;;;;;;;;;;;;19.29;73.40;100786.19;4926179;28;121127;-76
2022/09/10 06:26:10;;;;;;;;;;;;;;;19.32;73.74;100799.06;4925139;28;123767;-76
2022/09/10 06:28:55;;;;;;;;;;;;;;;19.35;73.53;100798.03;4931282;28;121745;-76
2022/09/10 06:31:22;;;;;;;;;;;;;;;19.37;73.68;100798.28;4960998;28;121065;-76
2022/09/10 06:33:49;;;;;;;;;;;;;;;19.38;73.76;100799.03;4910895;28;121289;-76
2022/09/10 06:36:18;;;;;;;;;;;;;;;19.40;73.75;100800.06;4910818;28;121885;-76
2022/09/10 06:38:44;;;;;;;;;;;;;;;19.42;73.76;100803.09;4926126;28;120583;-77
2022/09/10 06:41:12;;;;;;;;;;;;;;;19.44;73.71;100808.91;4927498;28;120203;-76
2022/09/10 06:43:45;;;;;;;;;;;;;;;19.49;73.66;100807.38;4926822;28;119984;-76
2022/09/10 06:46:37;;;;;;;;;;;;;;;19.52;74.24;100815.47;4927338;28;123744;-76
2022/09/10 06:49:11;;;;;;;;;;;;;;;19.56;73.74;100815.22;4928240;28;120712;-76
2022/09/10 06:51:38;;;;;;;;;;;;;;;19.57;73.89;100820.28;4944762;28;120328;-77
2022/09/10 06:54:06;;;;;;;;;;;;;;;19.58;73.40;100818.25;4945634;28;120683;-77
2022/09/10 06:56:33;;;;;;;;;;;;;;;19.58;73.57;100823.81;4926728;28;122776;-76
2022/09/10 06:59:00;;;;;;;;;;;;;;;19.56;73.62;100813.19;4927250;28;121805;-77
2022/09/10 07:01:30;;;;;;;;;;;;;;;19.57;73.82;100819.53;4910403;28;120799;-77
2022/09/10 07:03:59;;;;;;;;;;;;;;;19.55;73.70;100822.81;4908931;28;122389;-77
2022/09/10 07:06:26;;;;;;;;;;;;;;;19.56;73.93;100820.78;4910285;28;123482;-77
2022/09/10 07:08:57;;;;;;;;;;;;;;;19.57;73.53;100822.31;4925515;28;120736;-77
2022/09/10 07:11:27;;;;;;;;;;;;;;;19.57;74.01;100825.09;4924963;28;121929;-77
2022/09/10 07:13:54;;;;;;;;;;;;;;;19.56;73.97;100826.34;4923257;28;123000;-76
2022/09/10 07:16:26;;;;;;;;;;;;;;;19.55;73.95;100838.75;4930422;28;121085;-78
2022/09/10 07:18:53;;;;;;;;;;;;;;;19.55;74.03;100831.16;4908495;28;123833;-77
2022/09/10 07:21:20;;;;;;;;;;;;;;;19.57;74.04;100839.75;4942961;28;121495;-77
2022/09/10 07:23:56;;;;;;;;;;;;;;;19.58;74.27;100832.91;4941338;28;120400;-77
2022/09/10 07:26:22;;;;;;;;;;;;;;;19.58;74.23;100832.16;4942113;28;120796;-77
2022/09/10 07:28:51;;;;;;;;;;;;;;;19.63;74.25;100828.59;4910716;28;120441;-77
2022/09/10 07:31:19;;;;;;;;;;;;;;;19.68;74.67;100832.66;4910122;28;121978;-78
2022/09/10 07:33:47;;;;;;;;;;;;;;;19.72;74.41;100831.13;4942508;28;121514;-77
2022/09/10 07:36:13;;;;;;;;;;;;;;;19.78;74.33;100833.88;4923572;28;122638;-77
2022/09/10 07:38:39;;;;;;;;;;;;;;;19.84;74.30;100840.19;4912470;28;123068;-77
2022/09/10 07:41:06;;;;;;;;;;;;;;;19.89;74.25;100837.41;4908683;28;120852;-77
2022/09/10 07:43:32;;;;;;;;;;;;;;;19.98;74.61;100844.69;4908839;28;122637;-77
2022/09/10 07:45:57;;;;;;;;;;;;;;;20.06;74.11;100834.53;4908483;28;123926;-77
2022/09/10 07:48:26;;;;;;;330.55;72.22;;;;;;;20.17;74.32;100844.88;4955797;28;122180;-80
2022/09/10 07:50:59;;;;;;;317.17;72.43;;;;;;;20.24;75.16;100825.59;4908465;28;123333;-79
2022/09/10 07:53:25;;;;;;;;;;;;;;;20.41;74.61;100842.25;4925654;28;121945;-78
2022/09/10 07:56:02;;;;;;;;;;;;;;;20.45;73.45;100842.75;4924793;28;121376;-78
2022/09/10 07:58:34;;;;;;;;;;;;;;;20.46;73.35;100844.25;4925874;28;122054;-77
2022/09/10 08:01:05;;;;;;;;;;;;;;;20.51;73.29;100848.28;4913594;28;126020;-77
2022/09/10 08:03:31;;;;;;;;;;;;;;;20.58;73.48;100852.53;4941250;28;123221;-77
2022/09/10 08:06:01;;;;;;;;;;;;;;;20.60;73.07;100853.56;4923196;28;121961;-78
2022/09/10 08:08:30;;;;;;;;;;;;;;;20.61;72.69;100855.06;4938505;28;123651;-77
2022/09/10 08:11:03;;;;;;;;;;;;;;;20.65;72.72;100861.13;4941450;28;121695;-77
2022/09/10 08:13:29;;;;;;;;;;;;;;;20.69;72.57;100858.81;4923125;28;124469;-78
2022/09/10 08:15:56;;;;;;;;;;;;;;;20.74;72.48;100871.19;4940340;28;122178;-78
2022/09/10 08:18:22;;;;;;;;;;;;;;;20.75;72.67;100875.50;4923385;28;123396;-77
2022/09/10 08:20:54;;;;;;;;;;;;;;;20.76;72.24;100877.00;4928227;28;124670;-77
2022/09/10 08:23:21;;;;;;;;;;;;;;;20.81;72.67;100876.97;4940808;28;123204;-76
2022/09/10 08:25:50;;;;;;;;;;;;;;;20.88;72.22;100881.25;4923542;28;122503;-77
2022/09/10 08:28:35;;;;;;;;;;;;;;;20.94;72.13;100887.53;4920251;28;122187;-77
2022/09/10 08:31:06;;;;;;;;;;;;;;;21.01;71.76;100889.00;4925558;28;122090;-77
2022/09/10 08:33:39;;;;;;;;;;;;;;;21.05;71.03;100889.47;4905700;28;123744;-77
2022/09/10 08:36:10;;;;;;;;;;;;;;;21.11;71.48;100893.00;4922996;28;121933;-77
2022/09/10 08:38:38;;;;;;;;;;;;;;;21.18;70.55;100892.44;4939896;28;122764;-77
2022/09/10 08:41:07;;;;;;;;;;;;;;;21.27;70.66;100894.91;4906466;28;125255;-77
2022/09/10 08:44:03;;;;;;;;;;;;;;;21.36;71.50;100894.59;4923572;28;122491;-77
2022/09/10 08:47:14;;;;;;;;;;;;;;;21.42;70.90;100897.31;4914086;28;122137;-77
2022/09/10 08:49:42;;;;;;;;;;;;;;;21.43;70.20;100907.97;4917564;28;122972;-77
2022/09/10 08:52:34;;;;;;;;;;;;;;;21.44;69.85;100908.72;4901266;28;122453;-77
2022/09/10 08:55:15;;;;;;;;;;;;;;;21.47;70.15;100906.91;4937294;28;122812;-77
2022/09/10 08:57:56;;;;;;;;;;;;;;;21.52;70.76;100906.09;4938626;28;124242;-78
2022/09/10 09:00:23;;;;;;;;;;;;;;;21.56;70.08;100906.59;4923353;28;123677;-78
2022/09/10 09:03:08;;;;;;;;;;;;;;;21.61;70.73;100908.56;4906988;28;124874;-78
2022/09/10 09:05:39;;;;;;;;;;;;;;;21.69;70.34;100912.31;4906136;28;122861;-77
2022/09/10 09:08:10;;;;;;;;;;;;;;;21.79;70.28;100907.91;4942779;28;124074;-77
2022/09/10 09:10:39;;;;;;;;;;;;;;;21.94;69.96;100911.03;4903182;28;123005;-78
2022/09/10 09:13:37;;;;;;;;;;;;;;;22.11;69.49;100915.69;4924509;28;123684;-80
2022/09/10 09:16:22;;;;;;;;;;;;;;;22.26;70.20;100921.63;4955717;28;122910;-80
2022/09/10 09:18:57;;;;;;;;;;;;;;;22.35;68.52;100916.41;4937649;28;122707;-80
2022/09/10 09:21:34;;;;;;;;;;;;;;;22.40;68.11;100914.84;4909741;28;124690;-80
2022/09/10 09:24:06;;;;;;;;;;;;;;;22.44;67.63;100918.09;4922738;28;125062;-80
2022/09/10 09:26:33;;;;;;;;;;;;;;;22.49;67.58;100916.53;4924988;28;122656;-80
2022/09/10 09:29:01;;;;;;;;;;;;;;;22.43;66.13;100913.78;4906754;28;122278;-80
2022/09/10 09:31:41;;;;;;;;;;;;;;;22.38;66.93;100913.84;4945607;28;122528;-80
2022/09/10 09:34:18;;;;;;;;;;;;;;;22.37;66.35;100918.69;4955152;28;123165;-80
2022/09/10 09:36:47;;;;;;;;;;;;;;;22.44;66.98;100917.31;4956351;28;122359;-80
2022/09/10 09:39:26;;;;;;;;;;;;;;;22.50;66.40;100913.19;4942120;28;123553;-80
2022/09/10 09:42:01;;;;;;;;;;;;;;;22.51;66.12;100917.50;4909257;28;122777;-80
2022/09/10 09:44:30;;;;;;;;;;;;;;;22.53;66.59;100925.34;4907040;28;125656;-80
2022/09/10 09:46:56;;;;;;;;;;;;;;;22.60;66.61;100922.69;4940914;28;122367;-80
2022/09/10 09:49:25;;;;;;;;;;;;;;;22.74;67.00;100920.00;4939827;28;122403;-80
2022/09/10 09:51:59;;;;;;;;;;;;;;;22.86;67.11;100921.38;4933670;28;123490;-79
2022/09/10 09:54:28;;;;;;;57.70;26.77;;;;;;;22.89;68.31;100923.84;4925138;28;122392;-80
2022/09/10 09:56:57;;;;;;;45.85;23.35;;;;;;;22.84;67.43;100929.53;4954124;28;123476;-80
2022/09/10 09:59:33;;;;;;;38.17;20.48;;;;;;;22.82;68.67;100935.66;4923046;28;122402;-81
2022/09/10 10:02:13;;;;;;;40.50;22.52;;;;;;;22.84;69.09;100927.47;4910274;28;124734;-80
2022/09/10 10:05:02;;;;;;;41.70;21.98;;;;;;;22.91;68.31;100935.25;4940292;28;124184;-80
2022/09/10 10:07:31;;;;;;;39.85;19.83;;;;;;;22.84;67.92;100930.28;4907473;28;122081;-80
2022/09/10 10:10:06;;;;;;;36.97;18.90;;;;;;;22.78;68.64;100931.63;4899069;28;124118;-81
2022/09/10 10:12:33;;;;;;;42.03;22.00;;;;;;;22.71;67.87;100941.34;4867088;28;123519;-80
2022/09/10 10:15:01;;;;;;;34.13;19.30;;;;;;;22.58;67.51;100936.47;4897193;28;122721;-80
2022/09/10 10:17:38;;;;;;;34.25;19.55;;;;;;;22.50;68.03;100938.34;4899752;28;123762;-80
2022/09/10 10:20:15;;;;;;;36.00;19.42;;;;;;;22.40;68.54;100945.56;4895813;28;123014;-80
2022/09/10 10:22:45;;;;;;;38.17;19.73;;;;;;;22.29;68.72;100948.53;4896051;28;123636;-80
2022/09/10 10:25:29;;;;;;;34.35;20.50;;;;;;;22.19;68.43;100950.13;4897757;28;124703;-80
2022/09/10 10:27:56;;;;;;;52.42;25.75;;;;;;;22.12;68.68;100950.72;4881967;28;122723;-79
2022/09/10 10:30:23;;;;;;;62.35;28.25;;;;;;;21.95;69.14;100951.63;4885715;28;124647;-80
2022/09/10 10:33:17;;;;;;;64.90;28.92;;;;;;;21.76;69.20;100951.56;4862299;28;122916;-80
2022/09/10 10:36:08;;;;;;;84.63;32.88;;;;;;;21.62;69.89;100946.38;4915113;28;122678;-81
2022/09/10 10:38:47;;;;;;;84.00;34.65;;;;;;;21.50;70.51;100948.50;4878715;28;124183;-80
2022/09/10 10:41:25;;;;;;;104.30;38.35;;;;;;;21.41;71.03;100952.38;4904629;28;123566;-80
2022/09/10 10:44:00;;;;;;;105.57;39.55;;;;;;;21.34;71.59;100949.41;4923878;28;122340;-80
2022/09/10 10:46:37;;;;;;;116.57;43.72;;;;;;;21.29;71.70;100955.75;4936678;28;125279;-80
2022/09/10 10:49:24;;;;;;;112.57;41.75;;;;;;;21.29;71.57;100956.53;4941164;28;122849;-80
2022/09/10 10:52:35;;;;;;;96.15;40.22;;;;;;;21.24;72.14;100948.94;4899636;28;122433;-81
2022/09/10 10:55:16;;;;;;;94.28;39.05;;;;;;;21.28;71.98;100952.22;4921983;28;126044;-80
2022/09/10 10:58:20;;;;;;;86.32;38.45;;;;;;;21.30;72.52;100949.69;4891416;28;121947;-80
2022/09/10 11:01:10;;;;;;;78.25;37.50;;;;;;;21.24;72.31;100948.94;4907259;28;124522;-80
2022/09/10 11:03:50;;;;;;;75.25;35.83;;;;;;;21.18;72.12;100942.63;4894051;28;143594;-79
2022/09/10 11:06:23;;;;;;;75.13;36.47;;;;;;;21.12;72.50;100941.94;4917226;28;123106;-80
2022/09/10 11:09:01;;;;;;;74.72;35.88;;;;;;;21.18;72.73;100944.66;4919859;28;122040;-79
2022/09/10 11:11:56;;;;;;;69.97;34.92;;;;;;;21.12;72.48;100939.88;4929704;28;122683;-80
2022/09/10 11:14:31;;;;;;;97.13;40.25;;;;;;;21.19;73.00;100944.16;4918032;28;123828;-80
2022/09/10 11:17:05;;;;;;;85.75;39.33;;;;;;;21.18;72.92;100939.84;4933318;28;123887;-80
2022/09/10 11:19:46;;;;;;;96.95;41.30;;;;;;;21.21;72.43;100941.59;4918567;28;122318;-80
2022/09/10 11:22:12;;;;;;;92.40;40.97;;;;;;;21.22;73.06;100934.75;4902484;28;125674;-80
2022/09/10 11:25:01;;;;;;;90.82;40.47;;;;;;;21.20;72.52;100930.97;4902141;28;125437;-77
2022/09/10 11:27:38;;;;;;;97.07;40.30;;;;;;;21.18;72.33;100928.69;4919973;28;122160;-78
2022/09/10 11:30:15;;;;;;;96.28;42.67;;;;;;;21.23;72.54;100933.47;4920001;28;122835;-78
2022/09/10 11:32:55;;;;;;;96.05;42.42;;;;;;;21.25;72.72;100939.31;4916834;28;121952;-79
2022/09/10 11:35:39;;;;;;;91.32;40.90;;;;;;;21.29;72.67;100941.81;4918165;28;123435;-78
2022/09/10 11:38:19;;;;;;;90.40;39.95;;;;;;;21.32;72.67;100938.75;4917991;28;127463;-78
2022/09/10 11:41:01;;;;;;;85.35;41.35;;;;;;;21.38;72.72;100930.34;4920130;28;124301;-78
2022/09/10 11:43:46;;;;;;;95.43;41.55;;;;;;;21.49;73.06;100935.06;4937036;28;122378;-78
2022/09/10 11:46:18;;;;;;;93.15;40.65;;;;;;;21.53;72.91;100932.75;4918909;28;125340;-78
2022/09/10 11:48:49;;;;;;;85.43;37.92;;;;;;;21.62;73.03;100935.22;4899418;28;122344;-78
2022/09/10 11:51:29;;;;;;;84.35;39.50;;;;;;;21.62;72.79;100932.41;4903897;28;124458;-78
2022/09/10 11:53:55;;;;;;;89.88;39.22;;;;;;;21.65;72.46;100928.59;4918383;28;123746;-79
2022/09/10 11:56:52;;;;;;;90.80;38.55;;;;;;;21.67;72.65;100928.81;4920089;28;123350;-78
2022/09/10 11:59:46;;;;;;;90.57;38.65;;;;;;;21.64;72.24;100924.28;4918755;28;125314;-78
2022/09/10 12:02:57;;;;;;;83.22;37.08;;;;;;;21.67;72.67;100929.56;4929966;28;122008;-78
2022/09/10 12:05:29;;;;;;;95.70;38.92;;;;;;;21.81;73.16;100926.91;4922098;28;124138;-78
2022/09/10 12:07:58;;;;;;;77.70;36.38;;;;;;;21.85;72.58;100933.72;4906793;28;122416;-78
2022/09/10 12:10:33;;;;;;;68.88;32.45;;;;;;;21.80;71.50;100926.16;4940381;28;122818;-78
2022/09/10 12:12:59;;;;;;;60.13;30.80;;;;;;;21.73;71.48;100921.88;4923010;28;122616;-78
2022/09/10 12:15:33;;;;;;;59.50;30.73;;;;;;;21.64;71.94;100918.69;4885484;28;125093;-78
2022/09/10 12:18:03;;;;;;;48.45;25.42;;;;;;;21.65;71.65;100931.38;4919392;28;123895;-78
2022/09/10 12:20:50;;;;;;;52.85;26.77;;;;;;;21.70;72.53;100928.53;4922697;28;122832;-78
2022/09/10 12:23:22;;;;;;;63.22;33.08;;;;;;;21.82;72.86;100923.59;4919476;28;123650;-78
2022/09/10 12:25:57;;;;;;;43.47;24.80;;;;;;;22.02;72.68;100925.94;4915067;28;124297;-78
2022/09/10 12:28:41;;;;;;;29.75;17.73;;;;;;;22.20;71.98;100923.72;4909355;28;125648;-78